Data for 11/22/2014

Time Sea-Level Adjusted Pressure Absolute Pressure Temperature Relative Humidity Dew Point   
(mb) (inHg) (mb) (inHg) (C) (F) (%) (C) (F)
00:05 1007 29.74 836 24.69 5.8 42.5 40 -6.8 19.8
00:10 1007 29.74 836 24.69 6 42.8 41 -6.3 20.6
00:15 1007 29.74 836 24.69 6.1 43 40 -6.5 20.3
00:20 1007 29.74 836 24.69 6.5 43.7 40 -6.1 21
00:25 1007 29.74 836 24.69 6.8 44.2 40 -6 21.2
00:30 1007 29.74 836 24.69 6.6 43.8 42 -5.4 22.3
00:35 1007 29.74 836 24.69 6.3 43.4 44 -4.9 23.2
00:40 1007 29.74 836 24.69 6.1 42.9 46 -4.6 23.7
00:45 1007 29.74 836 24.69 5.9 42.6 48 -4.4 24.1
00:50 1007 29.74 836 24.69 5.6 42.2 49 -4.4 24.2
00:55 1007 29.74 836 24.69 5.7 42.2 49 -4.3 24.2
01:00 1007 29.74 836 24.69 5.8 42.4 48 -4.5 23.9
01:05 1007 29.74 836 24.69 5.8 42.5 50 -3.9 25
01:10 1007 29.74 836 24.69 5.5 41.8 49 -4.4 24
01:15 1007 29.74 836 24.69 5.4 41.7 49 -4.3 24.2
01:20 1006 29.71 836 24.69 5.4 41.7 54 -3.1 26.4
01:25 1006 29.71 836 24.69 5.2 41.3 53 -3.6 25.5
01:30 1006 29.71 835 24.66 5.1 41.2 53 -3.8 25.2
01:35 1006 29.71 835 24.66 5.1 41.2 53 -3.7 25.4
01:40 1006 29.71 835 24.66 5.2 41.3 53 -3.5 25.6
01:45 1006 29.71 835 24.66 5.2 41.3 53 -3.5 25.6
01:50 1006 29.71 835 24.66 4.9 40.9 54 -3.5 25.7
01:55 1006 29.71 835 24.66 4.8 40.6 54 -3.8 25.2
02:00 1005 29.68 835 24.66 4.6 40.4 54 -3.9 25
02:05 1005 29.68 835 24.66 4.8 40.7 54 -3.7 25.4
02:10 1005 29.68 834 24.63 4.9 40.9 54 -3.6 25.6
02:15 1005 29.68 834 24.63 5 41 53 -3.7 25.3
02:20 1005 29.68 834 24.63 4.9 40.8 53 -3.8 25.1
02:25 1005 29.68 834 24.63 4.7 40.4 54 -3.9 25
02:30 1005 29.68 834 24.63 4.5 40 54 -4 24.9
02:35 1005 29.68 834 24.63 4.5 40.1 54 -3.9 24.9
02:40 1005 29.68 834 24.63 4.6 40.2 54 -3.9 24.9
02:45 1005 29.68 834 24.63 4.8 40.7 53 -3.9 25
02:50 1005 29.68 834 24.63 5.1 41.2 53 -3.6 25.4
02:55 1005 29.68 834 24.63 5.3 41.5 53 -3.5 25.6
03:00 1005 29.68 834 24.63 5.5 41.8 53 -3.3 26
03:05 1004 29.65 834 24.63 6 42.8 51 -3.5 25.7
03:10 1004 29.65 833 24.6 6.5 43.7 49 -3.5 25.8
03:15 1004 29.65 833 24.6 5.4 41.7 55 -2.9 26.8
03:20 1004 29.65 833 24.6 4.9 40.7 56 -3.2 26.3
03:25 1003 29.62 832 24.57 4.5 40.2 59 -2.8 27
03:30 1003 29.62 832 24.57 4.3 39.7 59 -3.1 26.5
03:35 1004 29.65 833 24.6 4.5 40 59 -2.7 27.1
03:40 1004 29.65 833 24.6 4.4 40 59 -2.9 26.8
03:45 1004 29.65 833 24.6 4.5 40.1 60 -2.7 27.2
03:50 1004 29.65 833 24.6 4.5 40.2 58 -3 26.6
03:55 1004 29.65 833 24.6 4.7 40.5 57 -3.1 26.5
04:00 1004 29.65 833 24.6 5.1 41.1 55 -3.3 26
04:05 1004 29.65 833 24.6 5.7 42.2 51 -3.7 25.4
04:10 1004 29.65 833 24.6 6.1 42.9 49 -3.8 25.2
04:15 1003 29.62 833 24.6 6.3 43.4 51 -3.1 26.3
04:20 1003 29.62 832 24.57 5.7 42.2 55 -2.7 27.1
04:25 1003 29.62 832 24.57 5.1 41.1 55 -3.2 26.2
04:30 1003 29.62 832 24.57 5.1 41.1 56 -3.1 26.4
04:35 1003 29.62 832 24.57 5.1 41.1 55 -3.3 26.1
04:40 1003 29.62 832 24.57 5.4 41.7 54 -3 26.5
04:45 1003 29.62 832 24.57 5.2 41.3 56 -2.9 26.9
04:50 1003 29.62 832 24.57 4.9 40.9 56 -3.2 26.3
04:55 1003 29.62 832 24.57 5.1 41.2 53 -3.6 25.6
05:00 1003 29.62 833 24.6 5.5 42 54 -3 26.7
05:05 1003 29.62 833 24.6 5.3 41.6 55 -3 26.6
05:10 1003 29.62 833 24.6 5.3 41.5 54 -3.2 26.3
05:15 1003 29.62 833 24.6 5.6 42 52 -3.5 25.7
05:20 1003 29.62 832 24.57 6.2 43.1 48 -3.9 25
05:25 1003 29.62 832 24.57 6.6 44 48 -3.7 25.3
05:30 1003 29.62 832 24.57 6.9 44.4 48 -3.3 26
05:35 1003 29.62 832 24.57 7 44.6 49 -3.1 26.4
05:40 1003 29.62 832 24.57 6.9 44.4 50 -2.9 26.9
05:45 1003 29.62 832 24.57 6.6 44 51 -2.8 27
05:50 1002 29.59 832 24.57 6.6 43.9 50 -3.1 26.4
05:55 1002 29.59 831 24.54 6.7 44 51 -2.7 27.1
06:00 1002 29.59 831 24.54 6.5 43.7 52 -2.5 27.5
06:05 1002 29.59 831 24.54 6.5 43.8 51 -2.8 26.9
06:10 1002 29.59 831 24.54 6.7 44 52 -2.5 27.4
06:15 1002 29.59 831 24.54 6.5 43.7 52 -2.5 27.4
06:20 1002 29.59 831 24.54 6.2 43.1 54 -2.5 27.5
06:25 1002 29.59 831 24.54 6.2 43.1 52 -2.9 26.8
06:30 1002 29.59 831 24.54 6.2 43.1 53 -2.6 27.3
06:35 1002 29.59 831 24.54 6.1 42.9 54 -2.6 27.3
06:40 1002 29.59 831 24.54 5.9 42.6 54 -2.7 27.2
06:45 1001 29.56 831 24.54 5.8 42.4 55 -2.5 27.5
06:50 1001 29.56 831 24.54 5.8 42.4 56 -2.4 27.7
06:55 1001 29.56 831 24.54 5.7 42.3 56 -2.4 27.7
07:00 1001 29.56 831 24.54 5.8 42.4 54 -2.7 27.1
07:05 1001 29.56 830 24.51 6.1 43 53 -2.8 27
07:10 1001 29.56 830 24.51 6.3 43.4 53 -2.6 27.3
07:15 1001 29.56 831 24.54 6.3 43.3 54 -2.4 27.7
07:20 1002 29.59 831 24.54 6.2 43.2 54 -2.5 27.5
07:25 1001 29.56 831 24.54 6.2 43.2 55 -2.3 27.9
07:30 1001 29.56 831 24.54 6 42.8 56 -2.1 28.3
07:35 1001 29.56 831 24.54 5.9 42.6 56 -2.2 28
07:40 1001 29.56 831 24.54 6 42.8 56 -2.1 28.1
07:45 1001 29.56 830 24.51 6 42.9 55 -2.3 27.9
07:50 1001 29.56 830 24.51 6.1 42.9 56 -2.1 28.2
07:55 1001 29.56 830 24.51 6 42.8 57 -1.9 28.6
08:00 1001 29.56 830 24.51 5.8 42.5 58 -1.8 28.7
08:05 1001 29.56 830 24.51 5.6 42.1 59 -1.7 29
08:10 1001 29.56 830 24.51 5.3 41.6 61 -1.6 29
08:15 1001 29.56 830 24.51 5.1 41.2 61 -1.8 28.8
08:20 1001 29.56 830 24.51 5.1 41.2 59 -2.1 28.2
08:25 1001 29.56 830 24.51 5.4 41.8 56 -2.5 27.5
08:30 1001 29.56 830 24.51 5.7 42.3 57 -2.1 28.2
08:35 1001 29.56 830 24.51 5.7 42.3 57 -2.1 28.2
08:40 1001 29.56 830 24.51 5.6 42 58 -2 28.4
08:45 1001 29.56 830 24.51 5.5 41.9 58 -2.2 28.1
08:50 1001 29.56 830 24.51 5.6 42 58 -2.2 28.1
08:55 1001 29.56 830 24.51 5.6 42 58 -2.1 28.2
09:00 1001 29.56 830 24.51 5.7 42.3 57 -2.2 28.1
09:05 1001 29.56 830 24.51 6.1 43 54 -2.6 27.3
09:10 1001 29.56 830 24.51 6.5 43.7 52 -2.7 27.1
09:15 1001 29.56 830 24.51 6.7 44.1 52 -2.4 27.7
09:20 1001 29.56 830 24.51 6.7 44 54 -2 28.4
09:25 1001 29.56 830 24.51 6.4 43.5 55 -2.1 28.2
09:30 1001 29.56 830 24.51 6.2 43.1 57 -1.8 28.8
09:35 1001 29.56 830 24.51 5.9 42.7 57 -1.9 28.5
09:40 1001 29.56 830 24.51 6 42.8 57 -2 28.4
09:45 1001 29.56 830 24.51 6.1 42.9 57 -1.8 28.8
09:50 1001 29.56 830 24.51 6.1 42.9 57 -1.7 28.9
09:55 1001 29.56 830 24.51 5.8 42.5 58 -1.7 29
10:00 1001 29.56 830 24.51 5.6 42.1 60 -1.6 29.1
10:05 1001 29.56 830 24.51 5.3 41.6 61 -1.5 29.3
10:10 1001 29.56 830 24.51 5.1 41.1 63 -1.4 29.5
10:15 1001 29.56 830 24.51 4.7 40.4 68 -0.7 30.8
10:20 1001 29.56 830 24.51 4.3 39.7 77 0.6 33
10:25 1001 29.56 830 24.51 3.5 38.3 83 1 33.7
10:30 1001 29.56 830 24.51 2.9 37.1 86 0.7 33.3
10:35 1001 29.56 830 24.51 2.5 36.4 87 0.5 32.9
10:40 1001 29.56 831 24.54 2.4 36.3 87 0.4 32.8
10:45 1002 29.59 831 24.54 2.5 36.4 86 0.4 32.7
10:50 1002 29.59 831 24.54 2.5 36.6 85 0.3 32.5
10:55 1002 29.59 831 24.54 2.9 37.3 82 0.2 32.3
11:00 1002 29.59 831 24.54 3.5 38.2 76 -0.3 31.4
11:05 1002 29.59 831 24.54 3.9 39 75 -0.1 31.9
11:10 1002 29.59 831 24.54 4.1 39.3 73 -0.3 31.5
11:15 1002 29.59 831 24.54 4.3 39.7 72 -0.4 31.3
11:20 1002 29.59 831 24.54 4.3 39.8 73 -0.1 31.8
11:25 1002 29.59 831 24.54 4.1 39.4 75 0.2 32.3
11:30 1002 29.59 832 24.57 3.9 39.1 73 -0.4 31.2
11:35 1002 29.59 832 24.57 4 39.2 72 -0.5 31
11:40 1002 29.59 831 24.54 3.9 39.1 73 -0.4 31.3
11:45 1002 29.59 831 24.54 3.9 39 75 -0.1 31.8
11:50 1002 29.59 831 24.54 3.8 38.8 75 -0.3 31.5
11:55 1002 29.59 831 24.54 3.7 38.7 76 -0.2 31.7
12:00 1002 29.59 831 24.54 3.6 38.6 76 -0.1 31.8
12:05 1002 29.59 831 24.54 3.7 38.7 75 -0.2 31.6
12:10 1002 29.59 831 24.54 3.8 38.9 77 0.1 32.2
12:15 1002 29.59 831 24.54 3.8 38.8 77 0.2 32.3
12:20 1002 29.59 831 24.54 3.7 38.7 78 0.3 32.6
12:25 1002 29.59 831 24.54 3.7 38.6 79 0.4 32.7
12:30 1002 29.59 831 24.54 3.5 38.3 79 0.2 32.4
12:35 1002 29.59 831 24.54 3.3 38 80 0.3 32.5
12:40 1002 29.59 831 24.54 3.3 37.9 81 0.3 32.5
12:45 1002 29.59 831 24.54 3.5 38.3 79 0.3 32.5
12:50 1002 29.59 831 24.54 3.6 38.5 79 0.3 32.6
12:55 1002 29.59 831 24.54 3.5 38.2 80 0.3 32.6
13:00 1002 29.59 831 24.54 3.6 38.4 79 0.3 32.6
13:05 1002 29.59 831 24.54 3.6 38.6 81 0.7 33.3
13:10 1002 29.59 831 24.54 3.4 38.1 82 0.6 33.1
13:15 1001 29.56 831 24.54 3.4 38.2 79 0.2 32.3
13:20 1002 29.59 831 24.54 3.8 38.9 70 -1.1 30
13:25 1002 29.59 831 24.54 4.2 39.5 71 -0.6 31
13:30 1002 29.59 831 24.54 4.1 39.3 73 -0.4 31.2
13:35 1002 29.59 831 24.54 4 39.2 75 -0 32
13:40 1002 29.59 831 24.54 3.2 37.8 81 0.2 32.4
13:45 1002 29.59 831 24.54 1.7 35.1 86 -0.4 31.3
13:50 1002 29.59 831 24.54 1.3 34.4 86 -0.8 30.5
13:55 1002 29.59 831 24.54 1.4 34.5 84 -0.9 30.3
14:00 1002 29.59 832 24.57 1.6 34.9 80 -1.4 29.5
14:05 1002 29.59 831 24.54 1.8 35.3 74 -2.3 27.8
14:10 1002 29.59 832 24.57 2.3 36.2 71 -2.4 27.7
14:15 1002 29.59 832 24.57 2.6 36.8 68 -2.6 27.3
14:20 1002 29.59 832 24.57 2.7 36.9 69 -2.3 27.8
14:25 1002 29.59 832 24.57 2.8 37 70 -2.2 28
14:30 1003 29.62 832 24.57 2.9 37.2 68 -2.5 27.5
14:35 1003 29.62 832 24.57 3 37.3 62 -3.7 25.3
14:40 1003 29.62 832 24.57 3.3 37.9 58 -4.2 24.4
14:45 1003 29.62 832 24.57 3.4 38.2 58 -4.1 24.7
14:50 1003 29.62 832 24.57 3.5 38.2 60 -3.6 25.5
14:55 1003 29.62 832 24.57 3.2 37.8 63 -3 26.5
15:00 1003 29.62 832 24.57 3 37.5 64 -3.1 26.5
15:05 1003 29.62 832 24.57 3 37.5 61 -3.7 25.4
15:10 1003 29.62 832 24.57 3.1 37.6 61 -3.8 25.2
15:15 1003 29.62 832 24.57 3.1 37.7 61 -3.7 25.3
15:20 1003 29.62 832 24.57 3.2 37.8 60 -3.9 25
15:25 1003 29.62 833 24.6 3.3 37.9 59 -4 24.7
15:30 1004 29.65 833 24.6 3.4 38.1 56 -4.7 23.6
15:35 1004 29.65 833 24.6 3.5 38.3 51 -5.7 21.7
15:40 1004 29.65 833 24.6 3.6 38.4 50 -5.8 21.6
15:45 1004 29.65 833 24.6 3.9 39 48 -6.2 20.9
15:50 1004 29.65 833 24.6 3.7 38.7 48 -6.3 20.6
15:55 1004 29.65 833 24.6 3.6 38.5 46 -6.8 19.7
16:00 1004 29.65 833 24.6 3.6 38.4 46 -7.1 19.3
16:05 1004 29.65 833 24.6 3.7 38.6 42 -8.1 17.4
16:10 1004 29.65 833 24.6 4.2 39.5 40 -8.1 17.4
16:15 1004 29.65 833 24.6 4.3 39.8 38 -8.8 16.1
16:20 1004 29.65 833 24.6 4.4 39.9 40 -8.2 17.3
16:25 1004 29.65 833 24.6 4.3 39.7 49 -5.4 22.3
16:30 1004 29.65 833 24.6 4.1 39.3 55 -4.3 24.3
16:35 1004 29.65 833 24.6 3.9 38.9 52 -5.2 22.6
16:40 1004 29.65 833 24.6 3.9 39 48 -6.1 20.9
16:45 1004 29.65 833 24.6 4 39.1 41 -8.2 17.3
16:50 1004 29.65 833 24.6 4.1 39.4 38 -8.9 16
16:55 1004 29.65 834 24.63 4 39.3 36 -9.9 14.2
17:00 1005 29.68 834 24.63 4 39.2 35 -10 14
17:05 1005 29.68 834 24.63 4 39.2 39 -8.7 16.4
17:10 1005 29.68 834 24.63 3.9 39 42 -8 17.7
17:15 1005 29.68 834 24.63 3.7 38.6 39 -9.1 15.6
17:20 1005 29.68 834 24.63 3.5 38.4 38 -9.5 14.9
17:25 1005 29.68 834 24.63 3.5 38.3 37 -10 14
17:30 1005 29.68 834 24.63 3.4 38.1 36 -10.4 13.3
17:35 1005 29.68 834 24.63 3.2 37.8 37 -10.1 13.7
17:40 1005 29.68 835 24.66 2.9 37.2 40 -9.6 14.7
17:45 1005 29.68 835 24.66 2.6 36.7 40 -9.7 14.6
17:50 1006 29.71 835 24.66 2.4 36.3 40 -10 14.1
17:55 1006 29.71 835 24.66 2.3 36.1 41 -9.6 14.7
18:00 1006 29.71 835 24.66 2.2 36 39 -10.2 13.6
18:05 1006 29.71 835 24.66 2.3 36.1 38 -10.5 13.1
18:10 1006 29.71 835 24.66 2.3 36.1 38 -10.5 13
18:15 1006 29.71 835 24.66 2.2 35.9 38 -10.7 12.8
18:20 1006 29.71 835 24.66 2 35.7 39 -10.6 13
18:25 1006 29.71 835 24.66 2 35.5 39 -10.6 13
18:30 1006 29.71 835 24.66 1.9 35.4 40 -10.5 13.1
18:35 1006 29.71 835 24.66 1.8 35.3 40 -10.3 13.5
18:40 1006 29.71 835 24.66 1.7 35 42 -10 14
18:45 1006 29.71 835 24.66 1.4 34.6 42 -10.2 13.7
18:50 1006 29.71 835 24.66 1.5 34.7 41 -10.3 13.5
18:55 1006 29.71 835 24.66 1.5 34.7 42 -10 13.9
19:00 1006 29.71 836 24.69 1.4 34.5 43 -9.9 14.2
19:05 1006 29.71 836 24.69 1.4 34.5 44 -9.7 14.6
19:10 1007 29.74 836 24.69 1.1 34 45 -9.5 14.8
19:15 1007 29.74 836 24.69 1 33.7 46 -9.5 14.9
19:20 1007 29.74 836 24.69 0.6 33.1 48 -9.2 15.4
19:25 1007 29.74 836 24.69 0.3 32.6 48 -9.6 14.8
19:30 1007 29.74 836 24.69 0.4 32.7 47 -9.8 14.4
19:35 1007 29.74 836 24.69 0.5 32.9 47 -9.6 14.7
19:40 1007 29.74 836 24.69 0.5 32.9 46 -9.7 14.5
19:45 1007 29.74 836 24.69 0.6 33 46 -9.8 14.4
19:50 1007 29.74 836 24.69 0.7 33.2 46 -9.7 14.5
19:55 1007 29.74 836 24.69 0.6 33.2 46 -9.8 14.4
20:00 1007 29.74 836 24.69 0.6 33.2 47 -9.6 14.8
20:05 1007 29.74 836 24.69 0.5 32.9 47 -9.6 14.7
20:10 1007 29.74 836 24.69 0.5 32.9 47 -9.6 14.8
20:15 1007 29.74 836 24.69 0.5 32.9 46 -9.8 14.4
20:20 1007 29.74 836 24.69 0.4 32.7 48 -9.4 15.1
20:25 1007 29.74 836 24.69 0.2 32.3 49 -9.4 15.1
20:30 1007 29.74 836 24.69 0.2 32.4 46 -10 14
20:35 1007 29.74 837 24.72 0.6 33.1 46 -9.8 14.4
20:40 1008 29.77 837 24.72 0.7 33.3 46 -9.8 14.4
20:45 1008 29.77 837 24.72 0.7 33.3 46 -9.5 14.9
20:50 1008 29.77 837 24.72 0.6 33.1 47 -9.3 15.2
20:55 1008 29.77 837 24.72 0.5 33 48 -9.3 15.3
21:00 1008 29.77 837 24.72 0.5 32.9 48 -9.2 15.5
21:05 1008 29.77 837 24.72 0.4 32.8 48 -9.3 15.3
21:10 1008 29.77 837 24.72 0.5 32.9 48 -9.3 15.3
21:15 1008 29.77 837 24.72 0.5 32.9 47 -9.5 15
21:20 1008 29.77 837 24.72 0.5 32.9 49 -9.1 15.6
21:25 1008 29.77 837 24.72 0.3 32.6 48 -9.4 15.1
21:30 1008 29.77 837 24.72 0.2 32.4 49 -9.3 15.2
21:35 1008 29.77 837 24.72 0.2 32.4 48 -9.6 14.7
21:40 1008 29.77 837 24.72 0.3 32.5 48 -9.5 14.9
21:45 1008 29.77 838 24.75 0.3 32.5 48 -9.5 14.9
21:50 1008 29.77 838 24.75 0.3 32.6 48 -9.5 14.9
21:55 1008 29.77 838 24.75 0.4 32.7 47 -9.6 14.7
22:00 1008 29.77 838 24.75 0.5 32.9 47 -9.5 14.8
22:05 1008 29.77 838 24.75 0.4 32.6 49 -9.1 15.6
22:10 1009 29.8 838 24.75 -0 31.9 50 -9.3 15.2
22:15 1009 29.8 838 24.75 -0.1 31.9 51 -9 15.8
22:20 1009 29.8 838 24.75 -0.2 31.6 52 -8.9 15.9
22:25 1009 29.8 838 24.75 -0.3 31.4 52 -9 15.7
22:30 1009 29.8 838 24.75 -0.2 31.6 53 -8.8 16.2
22:35 1009 29.8 838 24.75 -0.3 31.5 54 -8.5 16.8
22:40 1009 29.8 838 24.75 -0.3 31.5 52 -9 15.8
22:45 1009 29.8 838 24.75 -0 32 50 -9.3 15.3
22:50 1009 29.8 838 24.75 0.1 32.2 48 -9.6 14.8
22:55 1009 29.8 838 24.75 0.2 32.3 48 -9.5 14.9
23:00 1009 29.8 838 24.75 0.2 32.3 51 -8.7 16.3
23:05 1009 29.8 838 24.75 0.2 32.4 49 -9.2 15.4
23:10 1009 29.8 838 24.75 0.2 32.4 48 -9.4 15.1
23:15 1009 29.8 838 24.75 0.2 32.3 51 -8.9 16
23:20 1009 29.8 838 24.75 0 32 54 -8.2 17.3
23:25 1009 29.8 838 24.75 0.1 32.1 53 -8.5 16.7
23:30 1009 29.8 839 24.78 0.1 32.2 54 -8.2 17.2
23:35 1009 29.8 839 24.78 0.1 32.2 53 -8.3 17
23:40 1009 29.8 839 24.78 0.2 32.4 52 -8.5 16.7
23:45 1009 29.8 839 24.78 0.3 32.6 52 -8.5 16.8
23:50 1010 29.83 839 24.78 0.4 32.7 52 -8.2 17.2
23:55 1010 29.83 839 24.78 0.3 32.6 53 -8.2 17.3
24:00 1010 29.83 839 24.78 0.3 32.5 53 -8.3 17.1